sensor_id;sensor_type;location;lat;lon;timestamp;temperature;humidity
7290;DHT22;63176;52.678;13.250;2022-10-16T00:01:22;14.20;99.90
7290;DHT22;63176;52.678;13.250;2022-10-16T00:03:48;14.20;99.90
7290;DHT22;63176;52.678;13.250;2022-10-16T00:06:14;14.20;99.90
7290;DHT22;63176;52.678;13.250;2022-10-16T00:08:41;14.20;99.90
7290;DHT22;63176;52.678;13.250;2022-10-16T00:11:12;14.30;99.90
7290;DHT22;63176;52.678;13.250;2022-10-16T00:13:40;14.30;99.90
7290;DHT22;63176;52.678;13.250;2022-10-16T00:16:07;14.30;99.90
7290;DHT22;63176;52.678;13.250;2022-10-16T00:18:33;14.30;99.90
7290;DHT22;63176;52.678;13.250;2022-10-16T00:21:03;14.30;99.90
7290;DHT22;63176;52.678;13.250;2022-10-16T00:23:29;14.30;99.90
7290;DHT22;63176;52.678;13.250;2022-10-16T00:26:00;14.40;99.90
7290;DHT22;63176;52.678;13.250;2022-10-16T00:28:26;14.40;99.90
7290;DHT22;63176;52.678;13.250;2022-10-16T00:30:52;14.40;99.90
7290;DHT22;63176;52.678;13.250;2022-10-16T00:33:18;14.40;99.90
7290;DHT22;63176;52.678;13.250;2022-10-16T00:35:44;14.40;99.90
7290;DHT22;63176;52.678;13.250;2022-10-16T00:38:09;14.40;99.90
7290;DHT22;63176;52.678;13.250;2022-10-16T00:40:35;14.40;99.90
7290;DHT22;63176;52.678;13.250;2022-10-16T00:43:00;14.40;99.90
7290;DHT22;63176;52.678;13.250;2022-10-16T00:45:26;14.50;99.90
7290;DHT22;63176;52.678;13.250;2022-10-16T00:47:54;14.50;99.90
7290;DHT22;63176;52.678;13.250;2022-10-16T00:50:30;14.50;1.00
7290;DHT22;63176;52.678;13.250;2022-10-16T00:52:57;14.50;99.90
7290;DHT22;63176;52.678;13.250;2022-10-16T00:55:24;14.50;99.90
7290;DHT22;63176;52.678;13.250;2022-10-16T00:57:51;14.50;99.90
7290;DHT22;63176;52.678;13.250;2022-10-16T01:00:22;14.50;99.90
7290;DHT22;63176;52.678;13.250;2022-10-16T01:02:55;14.50;99.90
7290;DHT22;63176;52.678;13.250;2022-10-16T01:05:46;14.50;99.90
7290;DHT22;63176;52.678;13.250;2022-10-16T01:08:24;14.60;99.90
7290;DHT22;63176;52.678;13.250;2022-10-16T01:11:25;14.60;99.90
7290;DHT22;63176;52.678;13.250;2022-10-16T01:13:59;14.60;99.90
7290;DHT22;63176;52.678;13.250;2022-10-16T01:16:29;14.60;99.90
7290;DHT22;63176;52.678;13.250;2022-10-16T01:21:43;14.70;99.90
7290;DHT22;63176;52.678;13.250;2022-10-16T01:31:51;14.70;99.90
7290;DHT22;63176;52.678;13.250;2022-10-16T01:34:25;14.70;99.90
7290;DHT22;63176;52.678;13.250;2022-10-16T01:37:00;14.70;99.90
7290;DHT22;63176;52.678;13.250;2022-10-16T01:39:30;14.70;99.90
7290;DHT22;63176;52.678;13.250;2022-10-16T01:42:08;14.70;99.90
7290;DHT22;63176;52.678;13.250;2022-10-16T01:44:35;14.70;99.90
7290;DHT22;63176;52.678;13.250;2022-10-16T01:47:03;14.70;99.90
7290;DHT22;63176;52.678;13.250;2022-10-16T01:49:35;14.70;99.90
7290;DHT22;63176;52.678;13.250;2022-10-16T01:52:05;14.70;99.90
7290;DHT22;63176;52.678;13.250;2022-10-16T01:54:35;14.70;95.50
7290;DHT22;63176;52.678;13.250;2022-10-16T01:57:04;14.70;93.00
7290;DHT22;63176;52.678;13.250;2022-10-16T01:59:33;14.70;59.20
7290;DHT22;63176;52.678;13.250;2022-10-16T02:02:04;14.70;53.30
7290;DHT22;63176;52.678;13.250;2022-10-16T02:04:34;14.70;36.50
7290;DHT22;63176;52.678;13.250;2022-10-16T02:07:02;14.70;87.80
7290;DHT22;63176;52.678;13.250;2022-10-16T02:09:29;14.70;88.20
7290;DHT22;63176;52.678;13.250;2022-10-16T02:11:57;14.70;75.20
7290;DHT22;63176;52.678;13.250;2022-10-16T02:14:25;14.70;90.80
7290;DHT22;63176;52.678;13.250;2022-10-16T02:16:51;14.70;99.90
7290;DHT22;63176;52.678;13.250;2022-10-16T02:19:18;14.70;99.90
7290;DHT22;63176;52.678;13.250;2022-10-16T02:21:58;14.70;99.90
7290;DHT22;63176;52.678;13.250;2022-10-16T02:24:51;14.70;99.90
7290;DHT22;63176;52.678;13.250;2022-10-16T02:30:08;14.60;27.80
7290;DHT22;63176;52.678;13.250;2022-10-16T02:32:41;14.60;38.40
7290;DHT22;63176;52.678;13.250;2022-10-16T02:35:08;14.60;62.20
7290;DHT22;63176;52.678;13.250;2022-10-16T02:37:34;14.60;43.30
7290;DHT22;63176;52.678;13.250;2022-10-16T02:40:01;14.60;23.70
7290;DHT22;63176;52.678;13.250;2022-10-16T02:42:39;14.60;14.10
7290;DHT22;63176;52.678;13.250;2022-10-16T02:45:06;14.60;1.00
7290;DHT22;63176;52.678;13.250;2022-10-16T02:47:32;14.50;1.00
7290;DHT22;63176;52.678;13.250;2022-10-16T02:49:58;14.50;1.00
7290;DHT22;63176;52.678;13.250;2022-10-16T02:52:23;14.50;1.00
7290;DHT22;63176;52.678;13.250;2022-10-16T02:54:49;14.50;1.00
7290;DHT22;63176;52.678;13.250;2022-10-16T02:57:15;14.50;1.00
7290;DHT22;63176;52.678;13.250;2022-10-16T02:59:40;14.50;1.00
7290;DHT22;63176;52.678;13.250;2022-10-16T03:02:06;14.40;1.00
7290;DHT22;63176;52.678;13.250;2022-10-16T03:04:32;14.40;1.00
7290;DHT22;63176;52.678;13.250;2022-10-16T03:06:57;14.40;1.00
7290;DHT22;63176;52.678;13.250;2022-10-16T03:09:23;14.30;1.00
7290;DHT22;63176;52.678;13.250;2022-10-16T03:11:48;14.30;1.00
7290;DHT22;63176;52.678;13.250;2022-10-16T03:14:14;14.20;1.00
7290;DHT22;63176;52.678;13.250;2022-10-16T03:16:40;14.20;1.00
7290;DHT22;63176;52.678;13.250;2022-10-16T03:19:05;14.10;1.00
7290;DHT22;63176;52.678;13.250;2022-10-16T03:21:31;14.10;1.00
7290;DHT22;63176;52.678;13.250;2022-10-16T03:23:57;14.00;1.00
7290;DHT22;63176;52.678;13.250;2022-10-16T03:26:22;14.00;1.00
7290;DHT22;63176;52.678;13.250;2022-10-16T03:28:48;13.90;1.00
7290;DHT22;63176;52.678;13.250;2022-10-16T03:31:13;13.90;1.00
7290;DHT22;63176;52.678;13.250;2022-10-16T03:33:39;13.90;1.00
7290;DHT22;63176;52.678;13.250;2022-10-16T03:36:05;13.80;1.00
7290;DHT22;63176;52.678;13.250;2022-10-16T03:38:30;13.80;1.00
7290;DHT22;63176;52.678;13.250;2022-10-16T03:40:56;13.70;1.00
7290;DHT22;63176;52.678;13.250;2022-10-16T03:43:22;13.70;1.00
7290;DHT22;63176;52.678;13.250;2022-10-16T03:45:47;13.70;1.00
7290;DHT22;63176;52.678;13.250;2022-10-16T03:48:13;13.60;1.00
7290;DHT22;63176;52.678;13.250;2022-10-16T03:50:38;13.60;1.00
7290;DHT22;63176;52.678;13.250;2022-10-16T03:53:04;13.60;1.00
7290;DHT22;63176;52.678;13.250;2022-10-16T03:55:30;13.60;27.30
7290;DHT22;63176;52.678;13.250;2022-10-16T03:57:55;13.50;51.20
7290;DHT22;63176;52.678;13.250;2022-10-16T04:00:21;13.50;81.50
7290;DHT22;63176;52.678;13.250;2022-10-16T04:02:47;13.50;99.90
7290;DHT22;63176;52.678;13.250;2022-10-16T04:05:12;13.50;99.90
7290;DHT22;63176;52.678;13.250;2022-10-16T04:07:38;13.50;99.90
7290;DHT22;63176;52.678;13.250;2022-10-16T04:10:05;13.50;99.90
7290;DHT22;63176;52.678;13.250;2022-10-16T04:12:31;13.50;99.90
7290;DHT22;63176;52.678;13.250;2022-10-16T04:14:56;13.50;99.90
7290;DHT22;63176;52.678;13.250;2022-10-16T04:17:22;13.50;99.90
7290;DHT22;63176;52.678;13.250;2022-10-16T04:19:48;13.50;99.90
7290;DHT22;63176;52.678;13.250;2022-10-16T04:22:13;13.40;99.90
7290;DHT22;63176;52.678;13.250;2022-10-16T04:24:39;13.40;99.90
7290;DHT22;63176;52.678;13.250;2022-10-16T04:27:05;13.40;99.90
7290;DHT22;63176;52.678;13.250;2022-10-16T04:29:30;13.30;99.90
7290;DHT22;63176;52.678;13.250;2022-10-16T04:31:56;13.30;99.90
7290;DHT22;63176;52.678;13.250;2022-10-16T04:34:21;13.30;99.90
7290;DHT22;63176;52.678;13.250;2022-10-16T04:36:48;13.30;99.90
7290;DHT22;63176;52.678;13.250;2022-10-16T04:39:15;13.30;99.90
7290;DHT22;63176;52.678;13.250;2022-10-16T04:41:40;13.30;99.90
7290;DHT22;63176;52.678;13.250;2022-10-16T04:44:06;13.30;99.90
7290;DHT22;63176;52.678;13.250;2022-10-16T04:46:32;13.30;99.90
7290;DHT22;63176;52.678;13.250;2022-10-16T04:48:57;13.20;1.00
7290;DHT22;63176;52.678;13.250;2022-10-16T04:51:23;13.20;1.00
7290;DHT22;63176;52.678;13.250;2022-10-16T04:53:48;13.20;1.00
7290;DHT22;63176;52.678;13.250;2022-10-16T04:56:14;13.20;1.00
7290;DHT22;63176;52.678;13.250;2022-10-16T04:58:40;13.20;1.00
7290;DHT22;63176;52.678;13.250;2022-10-16T05:01:06;13.20;1.00
7290;DHT22;63176;52.678;13.250;2022-10-16T05:03:31;13.20;1.00
7290;DHT22;63176;52.678;13.250;2022-10-16T05:05:57;13.10;1.00
7290;DHT22;63176;52.678;13.250;2022-10-16T05:08:23;13.10;1.00
7290;DHT22;63176;52.678;13.250;2022-10-16T05:10:48;13.10;1.00
7290;DHT22;63176;52.678;13.250;2022-10-16T05:13:14;13.10;1.00
7290;DHT22;63176;52.678;13.250;2022-10-16T05:15:40;13.10;1.00
7290;DHT22;63176;52.678;13.250;2022-10-16T05:18:05;13.10;1.00
7290;DHT22;63176;52.678;13.250;2022-10-16T05:20:31;13.10;1.00
7290;DHT22;63176;52.678;13.250;2022-10-16T05:22:57;13.10;1.00
7290;DHT22;63176;52.678;13.250;2022-10-16T05:25:23;13.10;1.00
7290;DHT22;63176;52.678;13.250;2022-10-16T05:27:49;13.10;1.00
7290;DHT22;63176;52.678;13.250;2022-10-16T05:30:16;13.10;1.00
7290;DHT22;63176;52.678;13.250;2022-10-16T05:32:45;13.00;1.00
7290;DHT22;63176;52.678;13.250;2022-10-16T05:35:11;13.00;1.00
7290;DHT22;63176;52.678;13.250;2022-10-16T05:37:36;13.00;1.00
7290;DHT22;63176;52.678;13.250;2022-10-16T05:40:02;13.00;1.00
7290;DHT22;63176;52.678;13.250;2022-10-16T05:42:29;13.00;1.00
7290;DHT22;63176;52.678;13.250;2022-10-16T05:44:54;12.90;1.00
7290;DHT22;63176;52.678;13.250;2022-10-16T05:47:20;13.00;1.00
7290;DHT22;63176;52.678;13.250;2022-10-16T05:49:46;13.00;1.00
7290;DHT22;63176;52.678;13.250;2022-10-16T05:52:12;13.00;1.00
7290;DHT22;63176;52.678;13.250;2022-10-16T05:54:37;13.00;1.00
7290;DHT22;63176;52.678;13.250;2022-10-16T05:57:03;13.10;97.70
7290;DHT22;63176;52.678;13.250;2022-10-16T05:59:31;13.10;99.90
7290;DHT22;63176;52.678;13.250;2022-10-16T06:01:56;13.10;99.90
7290;DHT22;63176;52.678;13.250;2022-10-16T06:04:22;13.20;1.00
7290;DHT22;63176;52.678;13.250;2022-10-16T06:06:48;13.20;1.00
7290;DHT22;63176;52.678;13.250;2022-10-16T06:09:13;13.20;1.00
7290;DHT22;63176;52.678;13.250;2022-10-16T06:11:39;13.30;1.00
7290;DHT22;63176;52.678;13.250;2022-10-16T06:14:05;13.30;1.00
7290;DHT22;63176;52.678;13.250;2022-10-16T06:16:33;13.40;1.00
7290;DHT22;63176;52.678;13.250;2022-10-16T06:19:00;13.40;1.00
7290;DHT22;63176;52.678;13.250;2022-10-16T06:21:27;13.40;28.60
7290;DHT22;63176;52.678;13.250;2022-10-16T06:23:54;13.40;99.90
7290;DHT22;63176;52.678;13.250;2022-10-16T06:26:22;13.50;99.90
7290;DHT22;63176;52.678;13.250;2022-10-16T06:28:48;13.50;99.90
7290;DHT22;63176;52.678;13.250;2022-10-16T06:31:15;13.50;99.90
7290;DHT22;63176;52.678;13.250;2022-10-16T06:33:41;13.50;99.90
7290;DHT22;63176;52.678;13.250;2022-10-16T06:36:09;13.60;99.90
7290;DHT22;63176;52.678;13.250;2022-10-16T06:38:36;13.60;99.90
7290;DHT22;63176;52.678;13.250;2022-10-16T06:41:02;13.70;99.90
7290;DHT22;63176;52.678;13.250;2022-10-16T06:43:31;13.70;1.00
7290;DHT22;63176;52.678;13.250;2022-10-16T06:45:58;13.70;1.00
7290;DHT22;63176;52.678;13.250;2022-10-16T06:48:25;13.70;1.00
7290;DHT22;63176;52.678;13.250;2022-10-16T06:51:10;13.80;1.00
7290;DHT22;63176;52.678;13.250;2022-10-16T06:53:39;13.80;1.00
7290;DHT22;63176;52.678;13.250;2022-10-16T06:58:35;13.80;1.00
7290;DHT22;63176;52.678;13.250;2022-10-16T07:01:00;13.90;1.00
7290;DHT22;63176;52.678;13.250;2022-10-16T07:03:26;14.00;1.00
7290;DHT22;63176;52.678;13.250;2022-10-16T07:05:51;14.00;1.00
7290;DHT22;63176;52.678;13.250;2022-10-16T07:08:17;14.00;1.00
7290;DHT22;63176;52.678;13.250;2022-10-16T07:10:43;14.10;1.00
7290;DHT22;63176;52.678;13.250;2022-10-16T07:13:08;14.20;1.00
7290;DHT22;63176;52.678;13.250;2022-10-16T07:15:34;14.20;1.00
7290;DHT22;63176;52.678;13.250;2022-10-16T07:17:59;14.20;1.00
7290;DHT22;63176;52.678;13.250;2022-10-16T07:20:25;14.20;1.00
7290;DHT22;63176;52.678;13.250;2022-10-16T07:22:51;14.30;1.00
7290;DHT22;63176;52.678;13.250;2022-10-16T07:25:17;14.30;1.00
7290;DHT22;63176;52.678;13.250;2022-10-16T07:27:43;14.30;1.00
7290;DHT22;63176;52.678;13.250;2022-10-16T07:30:09;14.40;1.00
7290;DHT22;63176;52.678;13.250;2022-10-16T07:32:35;14.50;8.60
7290;DHT22;63176;52.678;13.250;2022-10-16T07:35:00;14.60;1.00
7290;DHT22;63176;52.678;13.250;2022-10-16T07:37:26;14.60;1.00
7290;DHT22;63176;52.678;13.250;2022-10-16T07:39:51;14.60;1.00
7290;DHT22;63176;52.678;13.250;2022-10-16T07:42:17;14.70;1.00
7290;DHT22;63176;52.678;13.250;2022-10-16T07:44:42;14.80;1.00
7290;DHT22;63176;52.678;13.250;2022-10-16T07:47:08;14.80;1.00
7290;DHT22;63176;52.678;13.250;2022-10-16T07:49:34;14.90;1.00
7290;DHT22;63176;52.678;13.250;2022-10-16T07:52:00;14.90;1.00
7290;DHT22;63176;52.678;13.250;2022-10-16T07:54:25;14.90;1.00
7290;DHT22;63176;52.678;13.250;2022-10-16T07:56:51;15.00;99.90
7290;DHT22;63176;52.678;13.250;2022-10-16T07:59:16;15.00;99.90
7290;DHT22;63176;52.678;13.250;2022-10-16T08:01:42;15.10;99.90
7290;DHT22;63176;52.678;13.250;2022-10-16T08:04:09;15.10;99.90
7290;DHT22;63176;52.678;13.250;2022-10-16T08:06:36;15.20;30.80
7290;DHT22;63176;52.678;13.250;2022-10-16T08:09:03;15.20;1.00
7290;DHT22;63176;52.678;13.250;2022-10-16T08:11:29;15.20;1.00
7290;DHT22;63176;52.678;13.250;2022-10-16T08:13:54;15.30;1.00
7290;DHT22;63176;52.678;13.250;2022-10-16T08:16:20;15.30;99.90
7290;DHT22;63176;52.678;13.250;2022-10-16T08:18:46;15.30;1.00
7290;DHT22;63176;52.678;13.250;2022-10-16T08:21:14;15.40;1.00
7290;DHT22;63176;52.678;13.250;2022-10-16T08:23:40;15.40;1.00
7290;DHT22;63176;52.678;13.250;2022-10-16T08:26:07;15.40;1.00
7290;DHT22;63176;52.678;13.250;2022-10-16T08:28:33;15.40;1.00
7290;DHT22;63176;52.678;13.250;2022-10-16T08:31:13;15.40;1.00
7290;DHT22;63176;52.678;13.250;2022-10-16T08:33:41;15.50;99.90
7290;DHT22;63176;52.678;13.250;2022-10-16T08:36:07;15.50;99.90
7290;DHT22;63176;52.678;13.250;2022-10-16T08:38:33;15.50;99.90
7290;DHT22;63176;52.678;13.250;2022-10-16T08:49:32;15.70;1.00
7290;DHT22;63176;52.678;13.250;2022-10-16T08:51:58;15.70;1.00
7290;DHT22;63176;52.678;13.250;2022-10-16T08:54:42;15.80;1.00
7290;DHT22;63176;52.678;13.250;2022-10-16T08:57:19;15.80;1.00
7290;DHT22;63176;52.678;13.250;2022-10-16T08:59:45;15.90;1.00
7290;DHT22;63176;52.678;13.250;2022-10-16T09:02:24;16.00;1.00
7290;DHT22;63176;52.678;13.250;2022-10-16T09:10:56;16.10;1.00
7290;DHT22;63176;52.678;13.250;2022-10-16T09:21:23;16.40;1.00
7290;DHT22;63176;52.678;13.250;2022-10-16T09:23:51;16.50;1.00
7290;DHT22;63176;52.678;13.250;2022-10-16T09:26:17;16.60;1.00
7290;DHT22;63176;52.678;13.250;2022-10-16T09:28:45;16.60;99.90
7290;DHT22;63176;52.678;13.250;2022-10-16T09:31:17;16.60;99.90
7290;DHT22;63176;52.678;13.250;2022-10-16T09:33:44;16.70;99.90
7290;DHT22;63176;52.678;13.250;2022-10-16T09:36:12;16.70;99.90
7290;DHT22;63176;52.678;13.250;2022-10-16T09:38:38;16.70;99.90
7290;DHT22;63176;52.678;13.250;2022-10-16T09:41:20;16.80;99.90
7290;DHT22;63176;52.678;13.250;2022-10-16T09:49:01;17.10;99.90
7290;DHT22;63176;52.678;13.250;2022-10-16T09:51:33;17.10;99.90
7290;DHT22;63176;52.678;13.250;2022-10-16T09:56:38;17.20;99.90
7290;DHT22;63176;52.678;13.250;2022-10-16T09:59:15;17.30;99.90
7290;DHT22;63176;52.678;13.250;2022-10-16T10:01:45;17.30;99.90
7290;DHT22;63176;52.678;13.250;2022-10-16T10:04:12;17.40;99.90
7290;DHT22;63176;52.678;13.250;2022-10-16T10:06:44;17.50;99.90
7290;DHT22;63176;52.678;13.250;2022-10-16T10:09:20;17.60;99.90
7290;DHT22;63176;52.678;13.250;2022-10-16T10:11:56;17.60;99.90
7290;DHT22;63176;52.678;13.250;2022-10-16T10:14:23;17.60;99.90
7290;DHT22;63176;52.678;13.250;2022-10-16T10:16:51;17.60;99.90
7290;DHT22;63176;52.678;13.250;2022-10-16T10:19:27;17.60;99.90
7290;DHT22;63176;52.678;13.250;2022-10-16T10:21:52;17.50;99.90
7290;DHT22;63176;52.678;13.250;2022-10-16T10:24:19;17.50;99.90
7290;DHT22;63176;52.678;13.250;2022-10-16T10:27:00;17.60;99.90
7290;DHT22;63176;52.678;13.250;2022-10-16T10:32:09;17.80;99.90
7290;DHT22;63176;52.678;13.250;2022-10-16T10:34:59;17.90;99.90
7290;DHT22;63176;52.678;13.250;2022-10-16T10:40:09;18.20;99.90
7290;DHT22;63176;52.678;13.250;2022-10-16T10:42:44;18.20;99.90
7290;DHT22;63176;52.678;13.250;2022-10-16T11:04:26;18.20;99.90
7290;DHT22;63176;52.678;13.250;2022-10-16T11:07:04;18.20;99.90
7290;DHT22;63176;52.678;13.250;2022-10-16T11:09:34;18.30;99.90
7290;DHT22;63176;52.678;13.250;2022-10-16T11:12:12;18.30;99.90
7290;DHT22;63176;52.678;13.250;2022-10-16T11:17:40;18.20;99.90
7290;DHT22;63176;52.678;13.250;2022-10-16T11:20:45;18.10;99.90
7290;DHT22;63176;52.678;13.250;2022-10-16T11:23:25;18.10;99.90
7290;DHT22;63176;52.678;13.250;2022-10-16T11:25:55;18.10;99.90
7290;DHT22;63176;52.678;13.250;2022-10-16T11:28:31;18.10;99.90
7290;DHT22;63176;52.678;13.250;2022-10-16T11:36:12;18.20;99.90
7290;DHT22;63176;52.678;13.250;2022-10-16T11:55:38;18.30;99.90
7290;DHT22;63176;52.678;13.250;2022-10-16T12:08:45;18.40;99.90
7290;DHT22;63176;52.678;13.250;2022-10-16T12:11:37;18.50;99.90
7290;DHT22;63176;52.678;13.250;2022-10-16T12:16:59;18.70;99.90
7290;DHT22;63176;52.678;13.250;2022-10-16T12:19:29;18.80;99.90
7290;DHT22;63176;52.678;13.250;2022-10-16T12:21:58;18.90;99.90
7290;DHT22;63176;52.678;13.250;2022-10-16T12:26:59;19.00;99.90
7290;DHT22;63176;52.678;13.250;2022-10-16T12:29:33;19.10;99.90
7290;DHT22;63176;52.678;13.250;2022-10-16T12:32:00;19.00;99.90
7290;DHT22;63176;52.678;13.250;2022-10-16T12:34:40;19.00;99.90
7290;DHT22;63176;52.678;13.250;2022-10-16T12:39:45;18.90;99.90
7290;DHT22;63176;52.678;13.250;2022-10-16T12:42:38;18.90;99.90
7290;DHT22;63176;52.678;13.250;2022-10-16T12:45:24;18.90;99.90
7290;DHT22;63176;52.678;13.250;2022-10-16T12:47:52;18.90;99.90
7290;DHT22;63176;52.678;13.250;2022-10-16T12:50:36;19.00;99.90
7290;DHT22;63176;52.678;13.250;2022-10-16T12:53:17;19.10;99.90
7290;DHT22;63176;52.678;13.250;2022-10-16T12:55:52;19.30;99.90
7290;DHT22;63176;52.678;13.250;2022-10-16T13:12:52;19.10;99.90
7290;DHT22;63176;52.678;13.250;2022-10-16T13:18:46;18.90;99.90
7290;DHT22;63176;52.678;13.250;2022-10-16T13:21:32;18.90;99.90
7290;DHT22;63176;52.678;13.250;2022-10-16T13:29:02;18.90;99.90
7290;DHT22;63176;52.678;13.250;2022-10-16T13:31:28;19.00;99.90
7290;DHT22;63176;52.678;13.250;2022-10-16T13:33:57;19.00;99.90
7290;DHT22;63176;52.678;13.250;2022-10-16T13:36:45;19.00;99.90
7290;DHT22;63176;52.678;13.250;2022-10-16T13:39:26;19.10;99.90
7290;DHT22;63176;52.678;13.250;2022-10-16T13:42:21;19.10;99.90
7290;DHT22;63176;52.678;13.250;2022-10-16T13:44:52;19.00;99.90
7290;DHT22;63176;52.678;13.250;2022-10-16T13:47:20;19.00;99.90
7290;DHT22;63176;52.678;13.250;2022-10-16T13:49:58;18.90;99.90
7290;DHT22;63176;52.678;13.250;2022-10-16T13:52:24;18.80;99.90
7290;DHT22;63176;52.678;13.250;2022-10-16T13:54:49;18.70;99.90
7290;DHT22;63176;52.678;13.250;2022-10-16T13:57:16;18.70;99.90
7290;DHT22;63176;52.678;13.250;2022-10-16T13:59:42;18.60;99.90
7290;DHT22;63176;52.678;13.250;2022-10-16T14:02:22;18.60;99.90
7290;DHT22;63176;52.678;13.250;2022-10-16T14:04:51;18.60;99.90
7290;DHT22;63176;52.678;13.250;2022-10-16T14:07:31;18.50;99.90
7290;DHT22;63176;52.678;13.250;2022-10-16T14:10:07;18.50;99.90
7290;DHT22;63176;52.678;13.250;2022-10-16T14:12:43;18.50;99.90
7290;DHT22;63176;52.678;13.250;2022-10-16T14:15:17;18.40;99.90
7290;DHT22;63176;52.678;13.250;2022-10-16T14:17:46;18.40;99.90
7290;DHT22;63176;52.678;13.250;2022-10-16T14:20:15;18.40;99.90
7290;DHT22;63176;52.678;13.250;2022-10-16T14:22:42;18.40;99.90
7290;DHT22;63176;52.678;13.250;2022-10-16T14:30:25;18.50;99.90
7290;DHT22;63176;52.678;13.250;2022-10-16T14:35:26;18.40;99.90
7290;DHT22;63176;52.678;13.250;2022-10-16T14:37:54;18.40;99.90
7290;DHT22;63176;52.678;13.250;2022-10-16T14:40:24;18.40;99.90
7290;DHT22;63176;52.678;13.250;2022-10-16T14:42:49;18.40;99.90
7290;DHT22;63176;52.678;13.250;2022-10-16T14:45:23;18.40;99.90
7290;DHT22;63176;52.678;13.250;2022-10-16T14:47:53;18.30;99.90
7290;DHT22;63176;52.678;13.250;2022-10-16T14:50:19;18.30;99.90
7290;DHT22;63176;52.678;13.250;2022-10-16T14:52:45;18.30;99.90
7290;DHT22;63176;52.678;13.250;2022-10-16T14:55:11;18.30;99.90
7290;DHT22;63176;52.678;13.250;2022-10-16T14:57:38;18.30;99.90
7290;DHT22;63176;52.678;13.250;2022-10-16T15:00:13;18.30;99.90
7290;DHT22;63176;52.678;13.250;2022-10-16T15:02:40;18.30;99.90
7290;DHT22;63176;52.678;13.250;2022-10-16T15:05:18;18.20;99.90
7290;DHT22;63176;52.678;13.250;2022-10-16T15:07:44;18.20;99.90
7290;DHT22;63176;52.678;13.250;2022-10-16T15:10:12;18.20;99.90
7290;DHT22;63176;52.678;13.250;2022-10-16T15:12:38;18.10;99.90
7290;DHT22;63176;52.678;13.250;2022-10-16T15:17:46;18.10;99.90
7290;DHT22;63176;52.678;13.250;2022-10-16T15:20:11;17.90;99.90
7290;DHT22;63176;52.678;13.250;2022-10-16T15:22:37;17.90;99.90
7290;DHT22;63176;52.678;13.250;2022-10-16T15:25:25;17.80;99.90
7290;DHT22;63176;52.678;13.250;2022-10-16T15:27:52;17.70;99.90
7290;DHT22;63176;52.678;13.250;2022-10-16T15:30:18;17.60;99.90
7290;DHT22;63176;52.678;13.250;2022-10-16T15:32:43;17.60;99.90
7290;DHT22;63176;52.678;13.250;2022-10-16T15:35:09;17.50;99.90
7290;DHT22;63176;52.678;13.250;2022-10-16T15:37:35;17.40;99.90
7290;DHT22;63176;52.678;13.250;2022-10-16T15:40:00;17.30;99.90
7290;DHT22;63176;52.678;13.250;2022-10-16T15:42:26;17.20;99.90
7290;DHT22;63176;52.678;13.250;2022-10-16T15:44:52;17.10;99.90
7290;DHT22;63176;52.678;13.250;2022-10-16T15:47:17;16.90;99.90
7290;DHT22;63176;52.678;13.250;2022-10-16T15:49:43;16.80;99.90
7290;DHT22;63176;52.678;13.250;2022-10-16T15:52:08;16.60;99.90
7290;DHT22;63176;52.678;13.250;2022-10-16T15:54:34;16.50;99.90
7290;DHT22;63176;52.678;13.250;2022-10-16T15:57:00;16.30;99.90
7290;DHT22;63176;52.678;13.250;2022-10-16T15:59:25;16.10;99.90
7290;DHT22;63176;52.678;13.250;2022-10-16T16:01:51;16.00;99.90
7290;DHT22;63176;52.678;13.250;2022-10-16T16:04:16;15.80;99.90
7290;DHT22;63176;52.678;13.250;2022-10-16T16:06:42;15.70;99.90
7290;DHT22;63176;52.678;13.250;2022-10-16T16:09:11;15.60;99.90
7290;DHT22;63176;52.678;13.250;2022-10-16T16:11:37;15.50;99.90
7290;DHT22;63176;52.678;13.250;2022-10-16T16:14:09;15.40;99.90
7290;DHT22;63176;52.678;13.250;2022-10-16T16:16:36;15.30;99.90
7290;DHT22;63176;52.678;13.250;2022-10-16T16:19:04;15.20;99.90
7290;DHT22;63176;52.678;13.250;2022-10-16T16:21:31;15.10;99.90
7290;DHT22;63176;52.678;13.250;2022-10-16T16:23:57;15.00;99.90
7290;DHT22;63176;52.678;13.250;2022-10-16T16:26:28;14.90;99.90
7290;DHT22;63176;52.678;13.250;2022-10-16T16:29:01;14.80;99.90
7290;DHT22;63176;52.678;13.250;2022-10-16T16:31:29;14.70;99.90
7290;DHT22;63176;52.678;13.250;2022-10-16T16:33:55;14.60;99.90
7290;DHT22;63176;52.678;13.250;2022-10-16T16:36:23;14.60;99.90
7290;DHT22;63176;52.678;13.250;2022-10-16T16:38:49;14.50;99.90
7290;DHT22;63176;52.678;13.250;2022-10-16T16:41:19;14.30;99.90
7290;DHT22;63176;52.678;13.250;2022-10-16T16:43:45;14.30;99.90
7290;DHT22;63176;52.678;13.250;2022-10-16T16:46:13;14.20;99.90
7290;DHT22;63176;52.678;13.250;2022-10-16T16:48:38;14.00;99.90
7290;DHT22;63176;52.678;13.250;2022-10-16T16:51:09;14.00;99.90
7290;DHT22;63176;52.678;13.250;2022-10-16T16:53:35;13.90;99.90
7290;DHT22;63176;52.678;13.250;2022-10-16T16:56:03;13.80;99.90
7290;DHT22;63176;52.678;13.250;2022-10-16T16:58:28;13.80;99.90
7290;DHT22;63176;52.678;13.250;2022-10-16T17:00:54;13.70;99.90
7290;DHT22;63176;52.678;13.250;2022-10-16T17:03:20;13.60;99.90
7290;DHT22;63176;52.678;13.250;2022-10-16T17:05:58;13.50;99.90
7290;DHT22;63176;52.678;13.250;2022-10-16T17:08:24;13.50;99.90
7290;DHT22;63176;52.678;13.250;2022-10-16T17:10:50;13.40;99.90
7290;DHT22;63176;52.678;13.250;2022-10-16T17:13:19;13.40;99.90
7290;DHT22;63176;52.678;13.250;2022-10-16T17:15:48;13.30;99.90
7290;DHT22;63176;52.678;13.250;2022-10-16T17:18:15;13.30;99.90
7290;DHT22;63176;52.678;13.250;2022-10-16T17:20:41;13.20;99.90
7290;DHT22;63176;52.678;13.250;2022-10-16T17:23:09;13.10;99.90
7290;DHT22;63176;52.678;13.250;2022-10-16T17:25:40;13.10;99.90
7290;DHT22;63176;52.678;13.250;2022-10-16T17:28:07;13.00;99.90
7290;DHT22;63176;52.678;13.250;2022-10-16T17:30:33;13.00;99.90
7290;DHT22;63176;52.678;13.250;2022-10-16T17:33:00;12.90;99.90
7290;DHT22;63176;52.678;13.250;2022-10-16T17:35:26;12.90;99.90
7290;DHT22;63176;52.678;13.250;2022-10-16T17:37:52;12.80;99.90
7290;DHT22;63176;52.678;13.250;2022-10-16T17:40:19;12.80;99.90
7290;DHT22;63176;52.678;13.250;2022-10-16T17:42:45;12.70;99.90
7290;DHT22;63176;52.678;13.250;2022-10-16T17:45:10;12.70;99.90
7290;DHT22;63176;52.678;13.250;2022-10-16T17:47:36;12.70;99.90
7290;DHT22;63176;52.678;13.250;2022-10-16T17:50:05;12.60;99.90
7290;DHT22;63176;52.678;13.250;2022-10-16T17:52:30;12.60;99.90
7290;DHT22;63176;52.678;13.250;2022-10-16T17:54:56;12.50;99.90
7290;DHT22;63176;52.678;13.250;2022-10-16T17:57:22;12.50;99.90
7290;DHT22;63176;52.678;13.250;2022-10-16T17:59:48;12.50;99.90
7290;DHT22;63176;52.678;13.250;2022-10-16T18:02:13;12.40;99.90
7290;DHT22;63176;52.678;13.250;2022-10-16T18:04:39;12.40;99.90
7290;DHT22;63176;52.678;13.250;2022-10-16T18:07:05;12.30;99.90
7290;DHT22;63176;52.678;13.250;2022-10-16T18:09:31;12.30;99.90
7290;DHT22;63176;52.678;13.250;2022-10-16T18:11:56;12.30;99.90